createdAt,value
2019-03-01T00:00:58.404Z,4.91
2019-03-01T00:03:27.421Z,4.95
2019-03-01T00:06:22.615Z,4.95
2019-03-01T00:09:26.721Z,4.97
2019-03-01T00:12:24.690Z,4.96
2019-03-01T00:15:24.367Z,4.97
2019-03-01T00:18:10.249Z,4.90
2019-03-01T00:20:46.845Z,4.84
2019-03-01T00:23:49.872Z,4.79
2019-03-01T00:26:40.447Z,4.82
2019-03-01T00:29:26.045Z,4.82
2019-03-01T00:32:15.277Z,4.79
2019-03-01T00:34:55.692Z,4.80
2019-03-01T00:37:52.460Z,4.86
2019-03-01T00:40:41.677Z,4.96
2019-03-01T00:43:15.796Z,4.93
2019-03-01T00:45:44.073Z,4.93
2019-03-01T00:48:12.354Z,5.05
2019-03-01T00:50:40.638Z,4.96
2019-03-01T00:53:08.952Z,4.86
2019-03-01T00:55:37.250Z,4.91
2019-03-01T00:58:05.547Z,4.89
2019-03-01T01:00:38.071Z,4.89
2019-03-01T01:03:06.362Z,4.94
2019-03-01T01:05:34.643Z,4.86
2019-03-01T01:08:02.917Z,4.72
2019-03-01T01:10:31.194Z,4.68
2019-03-01T01:12:59.482Z,4.82
2019-03-01T01:15:27.757Z,4.92
2019-03-01T01:17:56.069Z,4.92
2019-03-01T01:20:24.351Z,4.93
2019-03-01T01:22:52.631Z,4.92
2019-03-01T01:25:20.930Z,4.89
2019-03-01T01:27:49.229Z,4.84
2019-03-01T01:30:17.516Z,4.92
2019-03-01T01:32:45.798Z,4.92
2019-03-01T01:35:14.106Z,4.93
2019-03-01T01:37:42.382Z,4.90
2019-03-01T01:40:11.129Z,4.92
2019-03-01T01:42:39.408Z,5.00
2019-03-01T01:45:10.141Z,4.95
2019-03-01T01:47:38.408Z,4.96
2019-03-01T01:50:08.841Z,4.95
2019-03-01T01:52:37.118Z,4.93
2019-03-01T01:55:06.371Z,4.91
2019-03-01T01:57:34.896Z,4.96
2019-03-01T02:00:03.955Z,5.00
2019-03-01T02:02:32.237Z,4.94
2019-03-01T02:05:00.538Z,4.90
2019-03-01T02:07:28.818Z,4.86
2019-03-01T02:09:57.089Z,4.73
2019-03-01T02:12:25.415Z,4.63
2019-03-01T02:14:53.697Z,4.58
2019-03-01T02:17:21.985Z,4.64
2019-03-01T02:19:50.275Z,4.65
2019-03-01T02:22:18.543Z,4.52
2019-03-01T02:24:46.838Z,4.57
2019-03-01T02:27:24.150Z,4.69
2019-03-01T02:29:52.499Z,4.55
2019-03-01T02:32:32.804Z,4.62
2019-03-01T02:35:01.108Z,4.61
2019-03-01T02:37:29.410Z,4.59
2019-03-01T02:39:57.707Z,4.62
2019-03-01T02:42:25.986Z,4.66
2019-03-01T02:44:54.261Z,4.70
2019-03-01T02:47:22.535Z,4.79
2019-03-01T02:49:50.810Z,4.63
2019-03-01T02:52:19.106Z,4.75
2019-03-01T02:54:47.381Z,4.85
2019-03-01T02:57:15.676Z,4.88
2019-03-01T02:59:43.955Z,4.84
2019-03-01T03:02:12.239Z,4.88
2019-03-01T03:04:40.542Z,4.88
2019-03-01T03:07:10.473Z,4.88
2019-03-01T03:09:38.759Z,4.87
2019-03-01T03:12:07.082Z,4.71
2019-03-01T03:14:35.338Z,4.63
2019-03-01T03:17:03.627Z,4.57
2019-03-01T03:19:31.909Z,4.66
2019-03-01T03:22:00.177Z,4.74
2019-03-01T03:24:28.468Z,4.70
2019-03-01T03:26:56.742Z,4.60
2019-03-01T03:29:25.031Z,4.60
2019-03-01T03:31:53.323Z,4.60
2019-03-01T03:34:21.611Z,4.65
2019-03-01T03:36:49.895Z,4.75
2019-03-01T03:39:18.169Z,4.80
2019-03-01T03:41:46.449Z,4.64
2019-03-01T03:44:14.737Z,4.75
2019-03-01T03:46:43.019Z,4.68
2019-03-01T03:49:11.291Z,4.54
2019-03-01T03:51:39.574Z,4.52
2019-03-01T03:54:07.870Z,4.56
2019-03-01T03:56:36.169Z,4.76
2019-03-01T03:59:04.450Z,4.80
2019-03-01T04:01:32.760Z,4.89
2019-03-01T04:04:01.061Z,4.89
2019-03-01T04:06:29.364Z,5.00
2019-03-01T04:08:57.672Z,4.94
2019-03-01T04:11:25.965Z,4.76
2019-03-01T04:13:54.246Z,4.71
2019-03-01T04:16:22.529Z,4.83
2019-03-01T04:18:50.845Z,4.74
2019-03-01T04:21:19.149Z,4.80
2019-03-01T04:23:47.459Z,4.90
2019-03-01T04:26:15.756Z,4.84
2019-03-01T04:28:44.056Z,4.83
2019-03-01T04:31:12.338Z,4.87
2019-03-01T04:33:41.040Z,4.84
2019-03-01T04:36:09.331Z,4.77
2019-03-01T04:38:37.635Z,4.78
2019-03-01T04:41:05.905Z,4.81
2019-03-01T04:47:05.293Z,4.61
2019-03-01T04:49:33.596Z,4.31
2019-03-01T04:52:05.061Z,4.42
2019-03-01T04:54:33.362Z,4.38
2019-03-01T04:57:01.639Z,4.51
2019-03-01T04:59:29.932Z,4.60
2019-03-01T05:01:58.234Z,4.58
2019-03-01T05:04:26.549Z,4.62
2019-03-01T05:06:54.850Z,4.60
2019-03-01T05:09:23.138Z,4.59
2019-03-01T05:11:51.426Z,4.71
2019-03-01T05:14:19.706Z,4.78
2019-03-01T05:16:48.020Z,4.56
2019-03-01T05:19:16.571Z,4.53
2019-03-01T05:21:44.933Z,4.46
2019-03-01T05:24:13.221Z,4.37
2019-03-01T05:26:41.526Z,4.44
2019-03-01T05:29:09.808Z,4.41
2019-03-01T05:31:38.095Z,4.37
2019-03-01T05:34:06.383Z,4.34
2019-03-01T05:36:34.678Z,4.49
2019-03-01T05:39:03.233Z,4.45
2019-03-01T05:41:31.576Z,4.28
2019-03-01T05:43:59.850Z,3.98
2019-03-01T05:46:28.166Z,3.88
2019-03-01T05:48:56.459Z,3.71
2019-03-01T05:51:24.749Z,3.82
2019-03-01T05:53:53.039Z,3.79
2019-03-01T05:56:21.321Z,3.84
2019-03-01T05:58:52.648Z,3.85
2019-03-01T06:01:27.134Z,3.81
2019-03-01T06:04:04.178Z,3.66
2019-03-01T06:06:41.113Z,3.64
2019-03-01T06:09:21.022Z,3.59
2019-03-01T06:12:11.572Z,3.67
2019-03-01T06:14:43.050Z,3.63
2019-03-01T06:17:30.813Z,3.62
2019-03-01T06:20:02.295Z,3.70
2019-03-01T06:22:42.498Z,3.81
2019-03-01T06:25:16.587Z,3.74
2019-03-01T06:28:02.934Z,3.87
2019-03-01T06:30:52.168Z,3.91
2019-03-01T06:33:35.436Z,3.89
2019-03-01T06:36:12.624Z,3.97
2019-03-01T06:38:48.391Z,3.97
2019-03-01T06:41:35.843Z,3.98
2019-03-01T06:44:22.113Z,4.01
2019-03-01T06:47:02.702Z,3.99
2019-03-01T06:49:48.444Z,3.90
2019-03-01T06:52:18.352Z,3.79
2019-03-01T06:54:46.631Z,3.88
2019-03-01T06:57:14.920Z,3.85
2019-03-01T06:59:43.226Z,3.84
2019-03-01T07:02:13.146Z,3.83
2019-03-01T07:04:41.432Z,3.77
2019-03-01T07:07:10.539Z,3.60
2019-03-01T07:09:38.820Z,3.55
2019-03-01T07:12:07.114Z,3.54
2019-03-01T07:14:35.380Z,3.47
2019-03-01T07:17:03.654Z,3.63
2019-03-01T07:19:31.946Z,3.72
2019-03-01T07:22:00.231Z,3.56
2019-03-01T07:24:28.508Z,3.39
2019-03-01T07:26:56.813Z,3.34
2019-03-01T07:29:25.098Z,3.29
2019-03-01T07:31:54.164Z,3.28
2019-03-01T07:34:22.534Z,3.30
2019-03-01T07:36:50.810Z,3.30
2019-03-01T07:39:19.112Z,3.41
2019-03-01T07:41:49.461Z,3.57
2019-03-01T07:44:17.400Z,3.55
2019-03-01T07:46:52.697Z,3.55
2019-03-01T07:49:15.692Z,3.42
2019-03-01T07:51:44.010Z,3.63
2019-03-01T07:54:13.228Z,3.63
2019-03-01T07:56:42.403Z,3.67
2019-03-01T07:59:10.673Z,3.69
2019-03-01T08:01:38.952Z,3.53
2019-03-01T08:04:07.234Z,3.44
2019-03-01T08:06:35.497Z,3.41
2019-03-01T08:09:05.415Z,3.26
2019-03-01T08:11:33.695Z,3.23
2019-03-01T08:14:01.964Z,3.33
2019-03-01T08:16:30.233Z,3.33
2019-03-01T08:18:58.499Z,3.33
2019-03-01T08:21:26.770Z,3.44
2019-03-01T08:23:55.073Z,3.52
2019-03-01T08:26:23.356Z,3.56
2019-03-01T08:28:54.734Z,3.65
2019-03-01T08:31:22.275Z,3.68
2019-03-01T08:33:50.624Z,3.90
2019-03-01T08:36:18.877Z,3.90
2019-03-01T08:38:47.164Z,4.04
2019-03-01T08:41:15.429Z,4.08
2019-03-01T08:43:44.813Z,4.13
2019-03-01T08:46:14.232Z,4.06
2019-03-01T08:48:42.527Z,3.87
2019-03-01T08:51:10.873Z,3.64
2019-03-01T08:53:39.153Z,3.57
2019-03-01T08:56:10.930Z,3.65
2019-03-01T08:58:37.578Z,3.52
2019-03-01T09:01:10.595Z,3.48
2019-03-01T09:03:47.554Z,3.54
2019-03-01T09:06:15.853Z,3.65
2019-03-01T09:08:46.274Z,3.54
2019-03-01T09:11:14.109Z,3.60
2019-03-01T09:13:42.370Z,3.57
2019-03-01T09:16:10.648Z,3.65
2019-03-01T09:18:38.920Z,3.76
2019-03-01T09:21:12.222Z,3.72
2019-03-01T09:23:37.212Z,3.68
2019-03-01T09:26:05.480Z,3.78
2019-03-01T09:28:38.557Z,3.84
2019-03-01T09:31:03.760Z,3.91
2019-03-01T09:33:32.071Z,3.92
2019-03-01T09:36:02.083Z,3.96
2019-03-01T09:38:30.367Z,3.83
2019-03-01T09:41:01.195Z,3.93
2019-03-01T09:43:28.690Z,3.94
2019-03-01T09:45:56.948Z,3.74
2019-03-01T09:48:25.236Z,3.78
2019-03-01T09:50:53.521Z,3.86
2019-03-01T09:53:21.798Z,3.88
2019-03-01T09:55:50.066Z,3.95
2019-03-01T09:58:18.360Z,4.19
2019-03-01T10:00:56.400Z,4.30
2019-03-01T10:03:22.742Z,4.33
2019-03-01T10:05:51.036Z,4.42
2019-03-01T10:08:19.340Z,4.26
2019-03-01T10:10:47.608Z,4.23
2019-03-01T10:13:15.881Z,4.04
2019-03-01T10:15:44.160Z,4.25
2019-03-01T10:18:12.456Z,4.05
2019-03-01T10:20:41.082Z,3.93
2019-03-01T10:23:09.365Z,3.98
2019-03-01T10:25:37.651Z,4.16
2019-03-01T10:28:05.932Z,4.47
2019-03-01T10:30:34.217Z,4.55
2019-03-01T10:33:02.489Z,4.37
2019-03-01T10:35:30.793Z,4.47
2019-03-01T10:37:59.064Z,4.46
2019-03-01T10:40:28.058Z,4.60
2019-03-01T10:42:56.335Z,4.67
2019-03-01T10:45:27.526Z,4.55
2019-03-01T10:47:55.795Z,4.51
2019-03-01T10:50:24.274Z,4.69
2019-03-01T10:52:52.612Z,4.78
2019-03-01T10:55:21.336Z,4.80
2019-03-01T10:57:49.843Z,4.88
2019-03-01T11:00:19.686Z,5.10
2019-03-01T11:02:47.973Z,5.01
2019-03-01T11:05:16.241Z,4.90
2019-03-01T11:07:44.530Z,4.74
2019-03-01T11:10:18.401Z,4.67
2019-03-01T11:12:46.685Z,4.91
2019-03-01T11:15:15.015Z,4.92
2019-03-01T11:17:43.309Z,4.92
2019-03-01T11:20:14.418Z,5.11
2019-03-01T11:22:42.772Z,5.13
2019-03-01T11:25:13.085Z,5.28
2019-03-01T11:27:41.361Z,5.16
2019-03-01T11:30:12.636Z,5.09
2019-03-01T11:32:40.891Z,5.05
2019-03-01T11:35:09.245Z,5.12
2019-03-01T11:37:37.513Z,5.31
2019-03-01T11:40:16.682Z,5.37
2019-03-01T11:42:45.048Z,5.24
2019-03-01T11:45:13.414Z,5.26
2019-03-01T11:47:41.677Z,5.34
2019-03-01T11:50:16.269Z,5.11
2019-03-01T11:52:44.602Z,5.35
2019-03-01T11:55:12.859Z,5.43
2019-03-01T11:57:41.155Z,5.63
2019-03-01T12:00:18.669Z,5.62
2019-03-01T12:02:47.493Z,5.55
2019-03-01T12:05:16.106Z,5.73
2019-03-01T12:07:44.390Z,5.57
2019-03-01T12:10:15.840Z,5.82
2019-03-01T12:12:44.121Z,5.96
2019-03-01T12:15:13.139Z,5.82
2019-03-01T12:17:41.433Z,5.85
2019-03-01T12:20:15.322Z,6.15
2019-03-01T12:22:43.629Z,6.31
2019-03-01T12:25:12.170Z,6.49
2019-03-01T12:27:40.450Z,6.35
2019-03-01T12:30:11.841Z,6.46
2019-03-01T12:32:40.114Z,6.53
2019-03-01T12:35:09.644Z,6.65
2019-03-01T12:37:37.913Z,6.74
2019-03-01T12:40:11.819Z,6.66
2019-03-01T12:42:40.101Z,6.47
2019-03-01T12:45:11.230Z,6.47
2019-03-01T12:47:39.510Z,6.51
2019-03-01T12:50:10.121Z,6.67
2019-03-01T12:52:38.420Z,6.60
2019-03-01T12:55:15.562Z,6.76
2019-03-01T12:57:43.831Z,6.82
2019-03-01T13:00:14.838Z,7.02
2019-03-01T13:02:43.104Z,6.84
2019-03-01T13:05:12.835Z,6.83
2019-03-01T13:07:41.144Z,6.92
2019-03-01T13:10:12.842Z,7.03
2019-03-01T13:12:41.112Z,6.93
2019-03-01T13:15:13.802Z,7.05
2019-03-01T13:17:41.082Z,6.96
2019-03-01T13:20:14.357Z,6.62
2019-03-01T13:22:42.648Z,6.70
2019-03-01T13:25:11.408Z,6.88
2019-03-01T13:27:39.673Z,6.81
2019-03-01T13:30:16.434Z,6.90
2019-03-01T13:32:44.757Z,6.96
2019-03-01T13:35:15.277Z,6.89
2019-03-01T13:37:43.549Z,6.87
2019-03-01T13:40:20.942Z,6.87
2019-03-01T13:42:50.769Z,7.05
2019-03-01T13:45:21.193Z,7.14
2019-03-01T13:47:49.495Z,7.00
2019-03-01T13:50:19.089Z,6.98
2019-03-01T13:52:47.346Z,6.98
2019-03-01T13:55:18.594Z,7.19
2019-03-01T13:57:49.785Z,6.91
2019-03-01T14:00:18.098Z,6.85
2019-03-01T14:02:48.050Z,6.88
2019-03-01T14:05:17.373Z,6.77
2019-03-01T14:07:45.953Z,6.77
2019-03-01T14:10:24.570Z,6.74
2019-03-01T14:12:53.206Z,6.84
2019-03-01T14:15:21.477Z,6.86
2019-03-01T14:17:49.763Z,6.96
2019-03-01T14:20:21.750Z,6.93
2019-03-01T14:22:50.084Z,6.92
2019-03-01T14:25:18.407Z,7.00
2019-03-01T14:27:46.717Z,7.01
2019-03-01T14:30:25.375Z,7.11
2019-03-01T14:32:56.973Z,7.01
2019-03-01T14:35:26.011Z,6.92
2019-03-01T14:37:55.237Z,6.92
2019-03-01T14:40:23.410Z,6.84
2019-03-01T14:42:51.814Z,6.88
2019-03-01T14:45:25.337Z,7.02
2019-03-01T14:47:53.443Z,6.91
2019-03-01T14:50:25.971Z,6.99
2019-03-01T14:52:58.345Z,6.94
2019-03-01T14:55:33.475Z,7.02
2019-03-01T14:58:05.173Z,7.04
2019-03-01T15:00:39.609Z,6.78
2019-03-01T15:03:33.342Z,6.75
2019-03-01T15:06:01.762Z,6.72
2019-03-01T15:08:30.110Z,6.56
2019-03-01T15:11:00.202Z,6.69
2019-03-01T15:13:31.355Z,6.69
2019-03-01T15:16:00.992Z,6.68
2019-03-01T15:18:28.998Z,6.72
2019-03-01T15:21:02.369Z,6.80
2019-03-01T15:23:28.612Z,6.79
2019-03-01T15:25:56.900Z,6.67
2019-03-01T15:28:25.175Z,6.72
2019-03-01T15:30:53.449Z,6.75
2019-03-01T15:33:21.730Z,6.75
2019-03-01T15:35:50.003Z,6.69
2019-03-01T15:38:18.279Z,6.72
2019-03-01T15:40:46.567Z,6.67
2019-03-01T15:43:14.845Z,6.44
2019-03-01T15:45:43.115Z,6.51
2019-03-01T15:48:11.409Z,6.55
2019-03-01T15:50:39.834Z,6.46
2019-03-01T15:53:08.098Z,6.47
2019-03-01T15:55:36.386Z,6.52
2019-03-01T15:58:04.648Z,6.57
2019-03-01T16:00:32.923Z,6.58
2019-03-01T16:03:01.195Z,6.59
2019-03-01T16:05:29.471Z,6.45
2019-03-01T16:07:57.746Z,6.45
2019-03-01T16:10:26.023Z,6.40
2019-03-01T16:12:54.302Z,6.48
2019-03-01T16:15:22.559Z,6.50
2019-03-01T16:17:50.837Z,6.37
2019-03-01T16:20:20.135Z,6.39
2019-03-01T16:22:51.001Z,6.41
2019-03-01T16:25:20.587Z,6.43
2019-03-01T16:27:50.623Z,6.45
2019-03-01T16:30:22.235Z,6.32
2019-03-01T16:32:50.821Z,6.37
2019-03-01T16:35:20.772Z,6.30
2019-03-01T16:37:53.591Z,6.23
2019-03-01T16:40:21.864Z,6.22
2019-03-01T16:42:54.309Z,6.28
2019-03-01T16:45:21.009Z,6.31
2019-03-01T16:47:50.175Z,6.26
2019-03-01T16:50:19.588Z,6.22
2019-03-01T16:52:47.919Z,6.11
2019-03-01T16:55:20.772Z,6.16
2019-03-01T16:57:52.308Z,6.14
2019-03-01T17:00:23.207Z,6.05
2019-03-01T17:02:56.587Z,6.02
2019-03-01T17:05:24.934Z,6.04
2019-03-01T17:07:53.186Z,6.09
2019-03-01T17:10:21.458Z,6.09
2019-03-01T17:12:52.108Z,6.01
2019-03-01T17:15:21.257Z,6.04
2019-03-01T17:17:49.534Z,6.00
2019-03-01T17:20:17.798Z,5.99
2019-03-01T17:22:46.073Z,5.97
2019-03-01T17:25:16.178Z,5.89
2019-03-01T17:27:45.300Z,5.83
2019-03-01T17:30:21.368Z,5.83
2019-03-01T17:32:49.647Z,5.87
2019-03-01T17:35:17.920Z,5.83
2019-03-01T17:37:46.198Z,5.72
2019-03-01T17:40:15.915Z,5.82
2019-03-01T17:42:44.184Z,5.78
2019-03-01T17:45:20.964Z,5.68
2019-03-01T17:47:48.477Z,5.67
2019-03-01T17:50:16.768Z,5.58
2019-03-01T17:52:45.082Z,5.55
2019-03-01T17:55:15.662Z,5.55
2019-03-01T17:57:43.936Z,5.50
2019-03-01T18:00:15.870Z,5.43
2019-03-01T18:02:44.151Z,5.42
2019-03-01T18:05:12.903Z,5.40
2019-03-01T18:07:41.259Z,5.44
2019-03-01T18:10:12.694Z,5.45
2019-03-01T18:12:40.968Z,5.36
2019-03-01T18:15:14.001Z,5.28
2019-03-01T18:17:42.273Z,5.30
2019-03-01T18:20:11.969Z,5.17
2019-03-01T18:22:40.243Z,5.17
2019-03-01T18:25:18.660Z,5.02
2019-03-01T18:27:49.775Z,5.09
2019-03-01T18:30:24.791Z,5.02
2019-03-01T18:32:53.076Z,5.03
2019-03-01T18:35:21.360Z,4.88
2019-03-01T18:37:51.438Z,4.81
2019-03-01T18:40:19.603Z,4.78
2019-03-01T18:42:47.878Z,4.73
2019-03-01T18:45:25.759Z,4.66
2019-03-01T18:47:54.030Z,4.64
2019-03-01T18:50:27.629Z,4.65
2019-03-01T18:52:55.140Z,4.66
2019-03-01T18:55:23.401Z,4.59
2019-03-01T18:57:51.673Z,4.50
2019-03-01T19:00:25.303Z,4.50
2019-03-01T19:02:53.582Z,4.51
2019-03-01T19:05:21.854Z,4.61
2019-03-01T19:07:50.118Z,4.58
2019-03-01T19:10:20.447Z,4.48
2019-03-01T19:12:49.576Z,4.39
2019-03-01T19:15:17.929Z,4.37
2019-03-01T19:17:46.647Z,4.31
2019-03-01T19:20:26.156Z,4.36
2019-03-01T19:22:54.416Z,4.38
2019-03-01T19:25:25.266Z,4.39
2019-03-01T19:27:52.670Z,4.44
2019-03-01T19:30:24.988Z,4.50
2019-03-01T19:32:53.422Z,4.60
2019-03-01T19:35:28.487Z,4.67
2019-03-01T19:37:51.707Z,4.75
2019-03-01T19:40:22.381Z,4.85
2019-03-01T19:42:50.659Z,4.86
2019-03-01T19:45:19.364Z,4.78
2019-03-01T19:47:47.742Z,4.77
2019-03-01T19:50:21.719Z,4.75
2019-03-01T19:52:50.781Z,4.83
2019-03-01T19:55:19.028Z,4.96
2019-03-01T19:57:47.381Z,4.97
2019-03-01T20:00:23.663Z,4.95
2019-03-01T20:02:51.963Z,4.91
2019-03-01T20:05:23.035Z,4.92
2019-03-01T20:07:51.792Z,4.96
2019-03-01T20:10:21.312Z,5.02
2019-03-01T20:12:49.579Z,4.99
2019-03-01T20:15:20.581Z,4.91
2019-03-01T20:17:48.927Z,4.89
2019-03-01T20:20:20.362Z,4.92
2019-03-01T20:22:50.592Z,4.98
2019-03-01T20:25:19.161Z,4.94
2019-03-01T20:27:47.567Z,4.93
2019-03-01T20:30:18.998Z,4.92
2019-03-01T20:32:50.894Z,4.96
2019-03-01T20:35:17.420Z,4.98
2019-03-01T20:37:45.762Z,4.86
2019-03-01T20:40:15.188Z,4.96
2019-03-01T20:42:43.991Z,4.92
2019-03-01T20:45:31.252Z,4.97
2019-03-01T20:47:59.757Z,4.99
2019-03-01T20:50:28.034Z,4.91
2019-03-01T20:52:56.365Z,4.84
2019-03-01T20:55:24.649Z,4.91
2019-03-01T20:57:52.930Z,4.98
2019-03-01T21:00:26.220Z,5.03
2019-03-01T21:02:53.207Z,5.06
2019-03-01T21:05:24.954Z,5.08
2019-03-01T21:07:53.775Z,5.12
2019-03-01T21:10:28.706Z,5.14
2019-03-01T21:12:56.981Z,5.01
2019-03-01T21:15:25.251Z,4.98
2019-03-01T21:17:56.935Z,5.01
2019-03-01T21:20:24.919Z,4.96
2019-03-01T21:22:53.208Z,5.03
2019-03-01T21:25:22.551Z,5.10
2019-03-01T21:27:50.813Z,5.01
2019-03-01T21:30:30.057Z,4.92
2019-03-01T21:32:58.336Z,4.94
2019-03-01T21:35:26.604Z,4.95
2019-03-01T21:37:55.129Z,4.94
2019-03-01T21:40:23.388Z,4.96
2019-03-01T21:42:52.870Z,5.01
2019-03-01T21:45:23.210Z,4.99
2019-03-01T21:47:51.480Z,4.95
2019-03-01T21:50:19.818Z,4.89
2019-03-01T21:52:48.076Z,4.89
2019-03-01T21:55:20.243Z,4.91
2019-03-01T21:57:48.560Z,4.86
2019-03-01T22:00:31.361Z,4.93
2019-03-01T22:02:58.486Z,4.90
2019-03-01T22:05:26.823Z,4.85
2019-03-01T22:07:55.098Z,4.86
2019-03-01T22:10:23.364Z,4.93
2019-03-01T22:12:51.784Z,4.99
2019-03-01T22:15:25.575Z,4.88
2019-03-01T22:17:55.441Z,4.98
2019-03-01T22:20:24.164Z,4.90
2019-03-01T22:22:52.442Z,4.90
2019-03-01T22:25:20.766Z,4.88
2019-03-01T22:27:49.019Z,4.86
2019-03-01T22:30:31.358Z,4.95
2019-03-01T22:32:59.642Z,4.92
2019-03-01T22:35:27.943Z,4.90
2019-03-01T22:37:56.234Z,4.86
2019-03-01T22:40:28.000Z,4.84
2019-03-01T22:42:54.523Z,4.84
2019-03-01T22:45:22.810Z,4.86
2019-03-01T22:47:51.083Z,4.84
2019-03-01T22:50:20.206Z,4.82
2019-03-01T22:52:48.495Z,4.80
2019-03-01T22:55:17.541Z,4.80
2019-03-01T22:57:45.839Z,4.78
2019-03-01T23:00:27.544Z,4.83
2019-03-01T23:02:55.828Z,4.82
2019-03-01T23:05:24.106Z,4.83
2019-03-01T23:07:52.379Z,4.85
2019-03-01T23:10:21.529Z,4.88
2019-03-01T23:12:50.529Z,4.84
2019-03-01T23:15:18.809Z,4.90
2019-03-01T23:17:47.091Z,4.75
2019-03-01T23:20:15.391Z,4.77
2019-03-01T23:22:46.017Z,4.71
2019-03-01T23:25:13.731Z,4.74
2019-03-01T23:27:42.025Z,4.78
2019-03-01T23:30:10.304Z,4.81
2019-03-01T23:32:38.604Z,4.73
2019-03-01T23:35:06.872Z,4.80
2019-03-01T23:37:35.603Z,4.90
2019-03-01T23:40:06.258Z,4.78
2019-03-01T23:42:34.549Z,4.85
2019-03-01T23:45:02.848Z,4.79
2019-03-01T23:47:31.157Z,4.82
2019-03-01T23:50:00.490Z,4.90
2019-03-01T23:52:28.927Z,4.89
2019-03-01T23:54:57.250Z,4.82
2019-03-01T23:57:25.534Z,4.79
2019-03-01T23:59:53.841Z,4.89
